sensor_id;sensor_type;location;lat;lon;timestamp;P1;durP1;ratioP1;P2;durP2;ratioP2
5718;SDS011;2884;47.734;9.244;2023-04-03T00:01:30;12.83;;;3.60;;
5718;SDS011;2884;47.734;9.244;2023-04-03T00:03:56;3.23;;;2.90;;
5718;SDS011;2884;47.734;9.244;2023-04-03T00:06:22;3.97;;;3.67;;
5718;SDS011;2884;47.734;9.244;2023-04-03T00:08:48;7.23;;;3.53;;
5718;SDS011;2884;47.734;9.244;2023-04-03T00:11:15;3.00;;;2.80;;
5718;SDS011;2884;47.734;9.244;2023-04-03T00:13:41;3.20;;;3.00;;
5718;SDS011;2884;47.734;9.244;2023-04-03T00:16:07;3.50;;;3.20;;
5718;SDS011;2884;47.734;9.244;2023-04-03T00:18:34;5.00;;;3.50;;
5718;SDS011;2884;47.734;9.244;2023-04-03T00:21:00;3.60;;;3.30;;
5718;SDS011;2884;47.734;9.244;2023-04-03T00:23:26;3.90;;;3.22;;
5718;SDS011;2884;47.734;9.244;2023-04-03T00:25:52;4.20;;;3.03;;
5718;SDS011;2884;47.734;9.244;2023-04-03T00:28:18;3.30;;;3.00;;
5718;SDS011;2884;47.734;9.244;2023-04-03T00:30:43;3.90;;;3.60;;
5718;SDS011;2884;47.734;9.244;2023-04-03T00:33:12;4.88;;;3.45;;
5718;SDS011;2884;47.734;9.244;2023-04-03T00:35:38;6.47;;;3.72;;
5718;SDS011;2884;47.734;9.244;2023-04-03T00:38:04;4.07;;;3.67;;
5718;SDS011;2884;47.734;9.244;2023-04-03T00:40:34;3.90;;;3.60;;
5718;SDS011;2884;47.734;9.244;2023-04-03T00:43:05;4.60;;;3.73;;
5718;SDS011;2884;47.734;9.244;2023-04-03T00:45:39;3.80;;;3.50;;
5718;SDS011;2884;47.734;9.244;2023-04-03T00:48:07;3.63;;;3.33;;
5718;SDS011;2884;47.734;9.244;2023-04-03T00:50:34;4.23;;;3.90;;
5718;SDS011;2884;47.734;9.244;2023-04-03T00:53:01;3.53;;;3.22;;
5718;SDS011;2884;47.734;9.244;2023-04-03T00:55:29;3.63;;;3.33;;
5718;SDS011;2884;47.734;9.244;2023-04-03T00:57:54;3.30;;;3.10;;
5718;SDS011;2884;47.734;9.244;2023-04-03T01:00:21;3.47;;;3.20;;
5718;SDS011;2884;47.734;9.244;2023-04-03T01:02:47;4.20;;;3.90;;
5718;SDS011;2884;47.734;9.244;2023-04-03T01:05:13;4.60;;;4.20;;
5718;SDS011;2884;47.734;9.244;2023-04-03T01:07:41;4.15;;;3.80;;
5718;SDS011;2884;47.734;9.244;2023-04-03T01:10:08;3.73;;;3.33;;
5718;SDS011;2884;47.734;9.244;2023-04-03T01:12:36;3.45;;;3.17;;
5718;SDS011;2884;47.734;9.244;2023-04-03T01:15:05;4.03;;;3.03;;
5718;SDS011;2884;47.734;9.244;2023-04-03T01:25:44;3.97;;;2.80;;
5718;SDS011;2884;47.734;9.244;2023-04-03T01:28:13;3.78;;;3.47;;
5718;SDS011;2884;47.734;9.244;2023-04-03T01:33:07;2.70;;;2.50;;
5718;SDS011;2884;47.734;9.244;2023-04-03T01:35:33;2.67;;;2.57;;
5718;SDS011;2884;47.734;9.244;2023-04-03T01:37:59;3.17;;;2.97;;
5718;SDS011;2884;47.734;9.244;2023-04-03T01:40:24;3.23;;;3.03;;
5718;SDS011;2884;47.734;9.244;2023-04-03T01:42:50;4.28;;;3.60;;
5718;SDS011;2884;47.734;9.244;2023-04-03T01:45:16;3.47;;;3.20;;
5718;SDS011;2884;47.734;9.244;2023-04-03T01:47:42;6.50;;;3.13;;
5718;SDS011;2884;47.734;9.244;2023-04-03T01:50:08;3.80;;;3.50;;
5718;SDS011;2884;47.734;9.244;2023-04-03T01:52:33;4.70;;;3.90;;
5718;SDS011;2884;47.734;9.244;2023-04-03T01:54:59;4.90;;;3.43;;
5718;SDS011;2884;47.734;9.244;2023-04-03T01:57:25;4.00;;;3.50;;
5718;SDS011;2884;47.734;9.244;2023-04-03T01:59:50;4.27;;;3.87;;
5718;SDS011;2884;47.734;9.244;2023-04-03T02:02:16;5.03;;;3.73;;
5718;SDS011;2884;47.734;9.244;2023-04-03T02:04:42;4.47;;;4.07;;
5718;SDS011;2884;47.734;9.244;2023-04-03T02:07:08;4.73;;;4.23;;
5718;SDS011;2884;47.734;9.244;2023-04-03T02:09:35;5.03;;;4.53;;
5718;SDS011;2884;47.734;9.244;2023-04-03T02:12:00;4.82;;;3.90;;
5718;SDS011;2884;47.734;9.244;2023-04-03T02:14:26;6.70;;;4.03;;
5718;SDS011;2884;47.734;9.244;2023-04-03T02:16:55;5.13;;;4.30;;
5718;SDS011;2884;47.734;9.244;2023-04-03T02:19:21;4.37;;;3.97;;
5718;SDS011;2884;47.734;9.244;2023-04-03T02:21:47;4.47;;;4.07;;
5718;SDS011;2884;47.734;9.244;2023-04-03T02:24:12;3.97;;;3.67;;
5718;SDS011;2884;47.734;9.244;2023-04-03T02:26:38;4.33;;;3.93;;
5718;SDS011;2884;47.734;9.244;2023-04-03T02:29:03;4.77;;;4.20;;
5718;SDS011;2884;47.734;9.244;2023-04-03T02:31:29;4.43;;;4.00;;
5718;SDS011;2884;47.734;9.244;2023-04-03T02:33:55;4.70;;;4.30;;
5718;SDS011;2884;47.734;9.244;2023-04-03T02:36:20;4.27;;;3.90;;
5718;SDS011;2884;47.734;9.244;2023-04-03T02:38:46;6.50;;;4.37;;
5718;SDS011;2884;47.734;9.244;2023-04-03T02:41:12;4.80;;;4.37;;
5718;SDS011;2884;47.734;9.244;2023-04-03T02:43:38;10.10;;;4.77;;
5718;SDS011;2884;47.734;9.244;2023-04-03T02:46:04;4.30;;;3.95;;
5718;SDS011;2884;47.734;9.244;2023-04-03T02:48:30;5.35;;;4.45;;
5718;SDS011;2884;47.734;9.244;2023-04-03T02:50:55;4.03;;;3.67;;
5718;SDS011;2884;47.734;9.244;2023-04-03T02:53:21;3.67;;;3.37;;
5718;SDS011;2884;47.734;9.244;2023-04-03T02:55:47;4.78;;;3.60;;
5718;SDS011;2884;47.734;9.244;2023-04-03T02:58:13;4.70;;;3.90;;
5718;SDS011;2884;47.734;9.244;2023-04-03T03:00:39;3.53;;;3.20;;
5718;SDS011;2884;47.734;9.244;2023-04-03T03:03:05;4.47;;;2.90;;
5718;SDS011;2884;47.734;9.244;2023-04-03T03:05:30;6.63;;;4.03;;
5718;SDS011;2884;47.734;9.244;2023-04-03T03:07:56;5.00;;;3.37;;
5718;SDS011;2884;47.734;9.244;2023-04-03T03:10:22;3.90;;;3.50;;
5718;SDS011;2884;47.734;9.244;2023-04-03T03:12:48;3.92;;;3.38;;
5718;SDS011;2884;47.734;9.244;2023-04-03T03:15:14;3.90;;;3.47;;
5718;SDS011;2884;47.734;9.244;2023-04-03T03:17:40;4.13;;;3.83;;
5718;SDS011;2884;47.734;9.244;2023-04-03T03:20:06;5.37;;;3.50;;
5718;SDS011;2884;47.734;9.244;2023-04-03T03:22:51;3.50;;;3.05;;
5718;SDS011;2884;47.734;9.244;2023-04-03T03:25:16;3.20;;;2.90;;
5718;SDS011;2884;47.734;9.244;2023-04-03T03:27:42;3.83;;;3.50;;
5718;SDS011;2884;47.734;9.244;2023-04-03T03:30:07;4.80;;;3.97;;
5718;SDS011;2884;47.734;9.244;2023-04-03T03:32:33;3.83;;;3.53;;
5718;SDS011;2884;47.734;9.244;2023-04-03T03:34:59;3.90;;;3.27;;
5718;SDS011;2884;47.734;9.244;2023-04-03T03:37:25;7.10;;;4.00;;
5718;SDS011;2884;47.734;9.244;2023-04-03T03:39:50;3.73;;;3.37;;
5718;SDS011;2884;47.734;9.244;2023-04-03T03:42:16;2.80;;;2.60;;
5718;SDS011;2884;47.734;9.244;2023-04-03T03:44:42;4.73;;;2.90;;
5718;SDS011;2884;47.734;9.244;2023-04-03T03:47:07;3.43;;;3.13;;
5718;SDS011;2884;47.734;9.244;2023-04-03T03:49:35;2.70;;;2.25;;
5718;SDS011;2884;47.734;9.244;2023-04-03T03:52:03;3.00;;;2.80;;
5718;SDS011;2884;47.734;9.244;2023-04-03T03:54:29;2.53;;;2.33;;
5718;SDS011;2884;47.734;9.244;2023-04-03T03:56:54;3.97;;;2.43;;
5718;SDS011;2884;47.734;9.244;2023-04-03T03:59:19;3.67;;;2.63;;
5718;SDS011;2884;47.734;9.244;2023-04-03T04:01:45;2.67;;;2.47;;
5718;SDS011;2884;47.734;9.244;2023-04-03T04:04:11;2.93;;;2.57;;
5718;SDS011;2884;47.734;9.244;2023-04-03T04:06:36;2.07;;;1.87;;
5718;SDS011;2884;47.734;9.244;2023-04-03T04:09:03;2.30;;;2.10;;
5718;SDS011;2884;47.734;9.244;2023-04-03T04:11:28;2.45;;;2.25;;
5718;SDS011;2884;47.734;9.244;2023-04-03T04:13:54;2.10;;;2.00;;
5718;SDS011;2884;47.734;9.244;2023-04-03T04:16:20;3.20;;;2.30;;
5718;SDS011;2884;47.734;9.244;2023-04-03T04:18:45;2.60;;;2.40;;
5718;SDS011;2884;47.734;9.244;2023-04-03T04:21:10;2.53;;;2.33;;
5718;SDS011;2884;47.734;9.244;2023-04-03T04:23:36;2.80;;;2.40;;
5718;SDS011;2884;47.734;9.244;2023-04-03T04:26:02;2.60;;;2.40;;
5718;SDS011;2884;47.734;9.244;2023-04-03T04:28:28;3.23;;;2.50;;
5718;SDS011;2884;47.734;9.244;2023-04-03T04:30:53;2.60;;;2.40;;
5718;SDS011;2884;47.734;9.244;2023-04-03T04:33:19;2.17;;;1.97;;
5718;SDS011;2884;47.734;9.244;2023-04-03T04:35:46;2.40;;;2.20;;
5718;SDS011;2884;47.734;9.244;2023-04-03T04:38:12;4.78;;;2.00;;
5718;SDS011;2884;47.734;9.244;2023-04-03T04:40:38;3.90;;;2.10;;
5718;SDS011;2884;47.734;9.244;2023-04-03T04:43:03;2.10;;;2.00;;
5718;SDS011;2884;47.734;9.244;2023-04-03T04:45:29;2.10;;;1.90;;
5718;SDS011;2884;47.734;9.244;2023-04-03T04:47:55;5.23;;;2.60;;
5718;SDS011;2884;47.734;9.244;2023-04-03T04:50:21;2.15;;;1.95;;
5718;SDS011;2884;47.734;9.244;2023-04-03T04:52:47;2.13;;;2.03;;
5718;SDS011;2884;47.734;9.244;2023-04-03T04:55:12;2.23;;;2.03;;
5718;SDS011;2884;47.734;9.244;2023-04-03T04:57:38;3.10;;;2.40;;
5718;SDS011;2884;47.734;9.244;2023-04-03T05:00:04;4.77;;;1.83;;
5718;SDS011;2884;47.734;9.244;2023-04-03T05:02:30;2.78;;;2.13;;
5718;SDS011;2884;47.734;9.244;2023-04-03T05:04:56;2.65;;;2.22;;
5718;SDS011;2884;47.734;9.244;2023-04-03T05:07:21;2.93;;;2.17;;
5718;SDS011;2884;47.734;9.244;2023-04-03T05:09:47;3.10;;;2.33;;
5718;SDS011;2884;47.734;9.244;2023-04-03T05:12:13;2.17;;;1.97;;
5718;SDS011;2884;47.734;9.244;2023-04-03T05:14:38;2.27;;;2.07;;
5718;SDS011;2884;47.734;9.244;2023-04-03T05:17:04;2.33;;;2.13;;
5718;SDS011;2884;47.734;9.244;2023-04-03T05:19:29;2.03;;;1.87;;
5718;SDS011;2884;47.734;9.244;2023-04-03T05:21:55;2.67;;;2.20;;
5718;SDS011;2884;47.734;9.244;2023-04-03T05:24:20;2.67;;;2.23;;
5718;SDS011;2884;47.734;9.244;2023-04-03T05:26:46;2.20;;;2.00;;
5718;SDS011;2884;47.734;9.244;2023-04-03T05:29:12;2.10;;;1.83;;
5718;SDS011;2884;47.734;9.244;2023-04-03T05:31:37;2.20;;;2.00;;
5718;SDS011;2884;47.734;9.244;2023-04-03T05:34:03;1.87;;;1.77;;
5718;SDS011;2884;47.734;9.244;2023-04-03T05:36:28;2.53;;;2.30;;
5718;SDS011;2884;47.734;9.244;2023-04-03T05:38:54;3.30;;;2.00;;
5718;SDS011;2884;47.734;9.244;2023-04-03T05:41:21;2.45;;;1.90;;
5718;SDS011;2884;47.734;9.244;2023-04-03T05:43:47;2.78;;;2.17;;
5718;SDS011;2884;47.734;9.244;2023-04-03T05:46:17;2.73;;;1.90;;
5718;SDS011;2884;47.734;9.244;2023-04-03T05:48:44;2.33;;;2.13;;
5718;SDS011;2884;47.734;9.244;2023-04-03T05:51:14;2.40;;;2.20;;
5718;SDS011;2884;47.734;9.244;2023-04-03T05:53:41;3.90;;;1.73;;
5718;SDS011;2884;47.734;9.244;2023-04-03T05:56:08;2.38;;;2.15;;
5718;SDS011;2884;47.734;9.244;2023-04-03T05:58:34;8.30;;;2.87;;
5718;SDS011;2884;47.734;9.244;2023-04-03T06:00:59;2.30;;;2.10;;
5718;SDS011;2884;47.734;9.244;2023-04-03T06:03:25;3.97;;;2.63;;
5718;SDS011;2884;47.734;9.244;2023-04-03T06:05:51;4.63;;;2.27;;
5718;SDS011;2884;47.734;9.244;2023-04-03T06:08:17;3.37;;;2.00;;
5718;SDS011;2884;47.734;9.244;2023-04-03T06:10:42;2.87;;;2.53;;
5718;SDS011;2884;47.734;9.244;2023-04-03T06:13:08;2.50;;;2.17;;
5718;SDS011;2884;47.734;9.244;2023-04-03T06:15:33;2.07;;;1.97;;
5718;SDS011;2884;47.734;9.244;2023-04-03T06:17:59;2.23;;;2.00;;
5718;SDS011;2884;47.734;9.244;2023-04-03T06:20:25;2.50;;;2.30;;
5718;SDS011;2884;47.734;9.244;2023-04-03T06:22:50;4.30;;;2.00;;
5718;SDS011;2884;47.734;9.244;2023-04-03T06:25:16;3.20;;;2.13;;
5718;SDS011;2884;47.734;9.244;2023-04-03T06:27:44;4.10;;;2.75;;
5718;SDS011;2884;47.734;9.244;2023-04-03T06:30:10;4.43;;;2.38;;
5718;SDS011;2884;47.734;9.244;2023-04-03T06:32:36;2.70;;;2.25;;
5718;SDS011;2884;47.734;9.244;2023-04-03T06:35:02;3.95;;;1.70;;
5718;SDS011;2884;47.734;9.244;2023-04-03T06:37:29;2.35;;;1.80;;
5718;SDS011;2884;47.734;9.244;2023-04-03T06:39:55;2.20;;;2.00;;
5718;SDS011;2884;47.734;9.244;2023-04-03T06:42:21;2.60;;;2.40;;
5718;SDS011;2884;47.734;9.244;2023-04-03T06:44:47;2.70;;;2.50;;
5718;SDS011;2884;47.734;9.244;2023-04-03T06:47:14;2.70;;;2.17;;
5718;SDS011;2884;47.734;9.244;2023-04-03T06:49:40;2.58;;;2.38;;
5718;SDS011;2884;47.734;9.244;2023-04-03T06:52:06;3.22;;;2.13;;
5718;SDS011;2884;47.734;9.244;2023-04-03T06:54:32;2.38;;;2.20;;
5718;SDS011;2884;47.734;9.244;2023-04-03T06:56:58;2.80;;;2.33;;
5718;SDS011;2884;47.734;9.244;2023-04-03T06:59:23;3.47;;;2.33;;
5718;SDS011;2884;47.734;9.244;2023-04-03T07:01:49;2.63;;;2.43;;
5718;SDS011;2884;47.734;9.244;2023-04-03T07:04:15;2.20;;;2.00;;
5718;SDS011;2884;47.734;9.244;2023-04-03T07:06:41;3.93;;;2.73;;
5718;SDS011;2884;47.734;9.244;2023-04-03T07:09:08;4.13;;;2.10;;
5718;SDS011;2884;47.734;9.244;2023-04-03T07:11:35;2.33;;;2.13;;
5718;SDS011;2884;47.734;9.244;2023-04-03T07:14:01;3.77;;;2.30;;
5718;SDS011;2884;47.734;9.244;2023-04-03T07:16:28;4.05;;;2.40;;
5718;SDS011;2884;47.734;9.244;2023-04-03T07:18:55;3.55;;;2.55;;
5718;SDS011;2884;47.734;9.244;2023-04-03T07:21:21;3.80;;;2.43;;
5718;SDS011;2884;47.734;9.244;2023-04-03T07:23:47;5.03;;;2.47;;
5718;SDS011;2884;47.734;9.244;2023-04-03T07:26:12;4.33;;;2.57;;
5718;SDS011;2884;47.734;9.244;2023-04-03T07:28:38;2.80;;;2.40;;
5718;SDS011;2884;47.734;9.244;2023-04-03T07:31:07;2.58;;;2.20;;
5718;SDS011;2884;47.734;9.244;2023-04-03T07:33:37;3.60;;;2.70;;
5718;SDS011;2884;47.734;9.244;2023-04-03T07:36:03;3.77;;;3.13;;
5718;SDS011;2884;47.734;9.244;2023-04-03T07:38:30;3.20;;;2.53;;
5718;SDS011;2884;47.734;9.244;2023-04-03T07:40:55;2.90;;;2.63;;
5718;SDS011;2884;47.734;9.244;2023-04-03T07:43:21;3.57;;;3.13;;
5718;SDS011;2884;47.734;9.244;2023-04-03T07:45:48;3.15;;;2.30;;
5718;SDS011;2884;47.734;9.244;2023-04-03T07:48:20;4.55;;;2.38;;
5718;SDS011;2884;47.734;9.244;2023-04-03T07:50:47;3.20;;;2.80;;
5718;SDS011;2884;47.734;9.244;2023-04-03T07:53:13;2.47;;;2.27;;
5718;SDS011;2884;47.734;9.244;2023-04-03T07:55:39;3.00;;;2.72;;
5718;SDS011;2884;47.734;9.244;2023-04-03T07:58:12;3.73;;;2.67;;
5718;SDS011;2884;47.734;9.244;2023-04-03T08:00:39;3.60;;;3.30;;
5718;SDS011;2884;47.734;9.244;2023-04-03T08:03:06;5.03;;;3.17;;
5718;SDS011;2884;47.734;9.244;2023-04-03T08:05:35;2.67;;;2.47;;
5718;SDS011;2884;47.734;9.244;2023-04-03T08:08:08;3.37;;;2.20;;
5718;SDS011;2884;47.734;9.244;2023-04-03T08:10:35;3.30;;;2.60;;
5718;SDS011;2884;47.734;9.244;2023-04-03T08:13:01;5.43;;;3.13;;
5718;SDS011;2884;47.734;9.244;2023-04-03T08:15:26;7.37;;;2.80;;
5718;SDS011;2884;47.734;9.244;2023-04-03T08:17:52;3.87;;;3.00;;
5718;SDS011;2884;47.734;9.244;2023-04-03T08:20:18;4.25;;;2.70;;
5718;SDS011;2884;47.734;9.244;2023-04-03T08:22:44;3.40;;;3.10;;
5718;SDS011;2884;47.734;9.244;2023-04-03T08:25:10;4.50;;;2.93;;
5718;SDS011;2884;47.734;9.244;2023-04-03T08:27:35;3.47;;;2.87;;
5718;SDS011;2884;47.734;9.244;2023-04-03T08:30:01;4.83;;;3.00;;
5718;SDS011;2884;47.734;9.244;2023-04-03T08:32:27;3.17;;;2.67;;
5718;SDS011;2884;47.734;9.244;2023-04-03T08:34:53;5.30;;;3.10;;
5718;SDS011;2884;47.734;9.244;2023-04-03T08:37:18;3.30;;;3.00;;
5718;SDS011;2884;47.734;9.244;2023-04-03T08:39:44;3.10;;;2.60;;
5718;SDS011;2884;47.734;9.244;2023-04-03T08:42:23;3.00;;;2.70;;
5718;SDS011;2884;47.734;9.244;2023-04-03T08:47:30;3.13;;;2.83;;
5718;SDS011;2884;47.734;9.244;2023-04-03T08:50:07;3.70;;;2.63;;
5718;SDS011;2884;47.734;9.244;2023-04-03T08:52:41;3.83;;;2.63;;
5718;SDS011;2884;47.734;9.244;2023-04-03T08:55:25;2.83;;;2.63;;
5718;SDS011;2884;47.734;9.244;2023-04-03T08:57:57;2.63;;;2.43;;
5718;SDS011;2884;47.734;9.244;2023-04-03T09:00:25;3.83;;;2.93;;
5718;SDS011;2884;47.734;9.244;2023-04-03T09:02:57;3.23;;;2.73;;
5718;SDS011;2884;47.734;9.244;2023-04-03T09:08:14;2.57;;;2.37;;
5718;SDS011;2884;47.734;9.244;2023-04-03T09:10:43;4.80;;;2.50;;
5718;SDS011;2884;47.734;9.244;2023-04-03T09:15:38;3.33;;;3.03;;
5718;SDS011;2884;47.734;9.244;2023-04-03T09:18:09;3.03;;;2.73;;
5718;SDS011;2884;47.734;9.244;2023-04-03T09:25:48;6.10;;;3.33;;
5718;SDS011;2884;47.734;9.244;2023-04-03T09:28:15;3.70;;;3.40;;
5718;SDS011;2884;47.734;9.244;2023-04-03T09:30:40;8.43;;;2.83;;
5718;SDS011;2884;47.734;9.244;2023-04-03T09:33:06;3.50;;;2.37;;
5718;SDS011;2884;47.734;9.244;2023-04-03T09:35:33;2.80;;;2.60;;
5718;SDS011;2884;47.734;9.244;2023-04-03T09:40:37;5.33;;;2.50;;
5718;SDS011;2884;47.734;9.244;2023-04-03T09:43:20;3.70;;;2.37;;
5718;SDS011;2884;47.734;9.244;2023-04-03T09:45:49;2.80;;;2.30;;
5718;SDS011;2884;47.734;9.244;2023-04-03T09:48:25;2.77;;;2.57;;
5718;SDS011;2884;47.734;9.244;2023-04-03T09:50:54;5.20;;;2.70;;
5718;SDS011;2884;47.734;9.244;2023-04-03T09:53:34;2.20;;;2.00;;
5718;SDS011;2884;47.734;9.244;2023-04-03T09:56:03;4.90;;;2.20;;
5718;SDS011;2884;47.734;9.244;2023-04-03T09:58:39;3.83;;;2.90;;
5718;SDS011;2884;47.734;9.244;2023-04-03T10:01:20;3.23;;;2.70;;
5718;SDS011;2884;47.734;9.244;2023-04-03T10:06:42;4.10;;;3.20;;
5718;SDS011;2884;47.734;9.244;2023-04-03T10:14:26;3.70;;;2.93;;
5718;SDS011;2884;47.734;9.244;2023-04-03T10:27:39;3.53;;;2.17;;
5718;SDS011;2884;47.734;9.244;2023-04-03T10:32:57;3.37;;;2.30;;
5718;SDS011;2884;47.734;9.244;2023-04-03T10:46:11;7.17;;;2.63;;
5718;SDS011;2884;47.734;9.244;2023-04-03T10:51:20;3.00;;;2.20;;
5718;SDS011;2884;47.734;9.244;2023-04-03T10:56:35;2.80;;;2.03;;
5718;SDS011;2884;47.734;9.244;2023-04-03T11:01:39;4.23;;;3.03;;
5718;SDS011;2884;47.734;9.244;2023-04-03T11:04:06;2.47;;;2.27;;
5718;SDS011;2884;47.734;9.244;2023-04-03T11:06:41;7.50;;;2.50;;
5718;SDS011;2884;47.734;9.244;2023-04-03T11:09:54;3.40;;;2.80;;
5718;SDS011;2884;47.734;9.244;2023-04-03T11:12:23;2.20;;;2.00;;
5718;SDS011;2884;47.734;9.244;2023-04-03T11:14:51;2.50;;;2.03;;
5718;SDS011;2884;47.734;9.244;2023-04-03T11:20:03;2.50;;;2.27;;
5718;SDS011;2884;47.734;9.244;2023-04-03T11:22:36;4.07;;;2.33;;
5718;SDS011;2884;47.734;9.244;2023-04-03T11:25:14;2.83;;;2.30;;
5718;SDS011;2884;47.734;9.244;2023-04-03T11:27:48;4.13;;;2.60;;
5718;SDS011;2884;47.734;9.244;2023-04-03T11:30:18;4.10;;;2.87;;
5718;SDS011;2884;47.734;9.244;2023-04-03T11:35:58;4.07;;;2.27;;
5718;SDS011;2884;47.734;9.244;2023-04-03T11:38:27;5.50;;;2.00;;
5718;SDS011;2884;47.734;9.244;2023-04-03T11:40:55;4.40;;;2.33;;
5718;SDS011;2884;47.734;9.244;2023-04-03T11:43:26;2.47;;;1.90;;
5718;SDS011;2884;47.734;9.244;2023-04-03T11:45:55;3.07;;;2.00;;
5718;SDS011;2884;47.734;9.244;2023-04-03T11:50:58;1.50;;;1.40;;
5718;SDS011;2884;47.734;9.244;2023-04-03T11:55:56;2.40;;;2.20;;
5718;SDS011;2884;47.734;9.244;2023-04-03T12:00:54;2.20;;;2.00;;
5718;SDS011;2884;47.734;9.244;2023-04-03T12:05:53;4.87;;;2.70;;
5718;SDS011;2884;47.734;9.244;2023-04-03T12:11:22;2.20;;;2.00;;
5718;SDS011;2884;47.734;9.244;2023-04-03T12:21:16;3.63;;;2.10;;
5718;SDS011;2884;47.734;9.244;2023-04-03T12:23:58;4.60;;;2.17;;
5718;SDS011;2884;47.734;9.244;2023-04-03T12:29:24;2.50;;;1.63;;
5718;SDS011;2884;47.734;9.244;2023-04-03T12:40:08;1.70;;;1.60;;
5718;SDS011;2884;47.734;9.244;2023-04-03T12:45:22;2.33;;;1.93;;
5718;SDS011;2884;47.734;9.244;2023-04-03T12:47:49;2.97;;;2.13;;
5718;SDS011;2884;47.734;9.244;2023-04-03T12:50:38;1.47;;;1.30;;
5718;SDS011;2884;47.734;9.244;2023-04-03T12:53:16;3.57;;;1.90;;
5718;SDS011;2884;47.734;9.244;2023-04-03T12:55:45;2.00;;;1.70;;
5718;SDS011;2884;47.734;9.244;2023-04-03T12:58:27;3.60;;;1.90;;
5718;SDS011;2884;47.734;9.244;2023-04-03T13:01:03;2.70;;;1.57;;
5718;SDS011;2884;47.734;9.244;2023-04-03T13:03:35;3.10;;;1.80;;
5718;SDS011;2884;47.734;9.244;2023-04-03T13:06:06;3.47;;;2.13;;
5718;SDS011;2884;47.734;9.244;2023-04-03T13:08:32;3.73;;;1.93;;
5718;SDS011;2884;47.734;9.244;2023-04-03T13:10:59;4.50;;;1.77;;
5718;SDS011;2884;47.734;9.244;2023-04-03T13:13:29;1.60;;;1.50;;
5718;SDS011;2884;47.734;9.244;2023-04-03T13:15:55;5.77;;;1.80;;
5718;SDS011;2884;47.734;9.244;2023-04-03T13:18:39;1.97;;;1.50;;
5718;SDS011;2884;47.734;9.244;2023-04-03T13:21:07;1.90;;;1.80;;
5718;SDS011;2884;47.734;9.244;2023-04-03T13:23:39;2.60;;;1.63;;
5718;SDS011;2884;47.734;9.244;2023-04-03T13:26:05;2.40;;;1.40;;
5718;SDS011;2884;47.734;9.244;2023-04-03T13:28:31;1.40;;;1.30;;
5718;SDS011;2884;47.734;9.244;2023-04-03T13:33:39;1.40;;;1.13;;
5718;SDS011;2884;47.734;9.244;2023-04-03T13:41:43;1.93;;;1.77;;
5718;SDS011;2884;47.734;9.244;2023-04-03T13:46:42;1.87;;;1.70;;
5718;SDS011;2884;47.734;9.244;2023-04-03T13:49:18;2.50;;;1.90;;
5718;SDS011;2884;47.734;9.244;2023-04-03T13:51:43;1.93;;;1.77;;
5718;SDS011;2884;47.734;9.244;2023-04-03T13:54:52;2.50;;;1.80;;
5718;SDS011;2884;47.734;9.244;2023-04-03T13:57:02;1.97;;;1.70;;
5718;SDS011;2884;47.734;9.244;2023-04-03T13:59:33;3.13;;;1.50;;
5718;SDS011;2884;47.734;9.244;2023-04-03T14:04:29;2.63;;;1.57;;
5718;SDS011;2884;47.734;9.244;2023-04-03T14:06:57;2.03;;;1.80;;
5718;SDS011;2884;47.734;9.244;2023-04-03T14:09:24;4.30;;;1.80;;
5718;SDS011;2884;47.734;9.244;2023-04-03T14:11:58;1.90;;;1.80;;
5718;SDS011;2884;47.734;9.244;2023-04-03T14:14:27;2.03;;;1.83;;
5718;SDS011;2884;47.734;9.244;2023-04-03T14:16:56;13.33;;;1.80;;
5718;SDS011;2884;47.734;9.244;2023-04-03T14:19:32;3.47;;;1.70;;
5718;SDS011;2884;47.734;9.244;2023-04-03T14:21:59;2.23;;;1.40;;
5718;SDS011;2884;47.734;9.244;2023-04-03T14:24:25;1.83;;;1.73;;
5718;SDS011;2884;47.734;9.244;2023-04-03T14:26:52;6.03;;;2.07;;
5718;SDS011;2884;47.734;9.244;2023-04-03T14:29:19;3.47;;;1.67;;
5718;SDS011;2884;47.734;9.244;2023-04-03T14:31:46;3.20;;;1.90;;
5718;SDS011;2884;47.734;9.244;2023-04-03T14:34:14;2.60;;;1.43;;
5718;SDS011;2884;47.734;9.244;2023-04-03T14:36:41;1.60;;;1.50;;
5718;SDS011;2884;47.734;9.244;2023-04-03T14:39:10;8.13;;;2.27;;
5718;SDS011;2884;47.734;9.244;2023-04-03T14:41:37;5.13;;;2.00;;
5718;SDS011;2884;47.734;9.244;2023-04-03T14:44:03;2.80;;;2.33;;
5718;SDS011;2884;47.734;9.244;2023-04-03T14:46:29;2.80;;;2.17;;
5718;SDS011;2884;47.734;9.244;2023-04-03T14:49:01;2.00;;;1.70;;
5718;SDS011;2884;47.734;9.244;2023-04-03T14:51:28;2.67;;;1.70;;
5718;SDS011;2884;47.734;9.244;2023-04-03T14:53:53;2.43;;;1.80;;
5718;SDS011;2884;47.734;9.244;2023-04-03T14:58:47;3.90;;;1.97;;
5718;SDS011;2884;47.734;9.244;2023-04-03T15:01:16;2.10;;;1.87;;
5718;SDS011;2884;47.734;9.244;2023-04-03T15:03:42;5.87;;;1.90;;
5718;SDS011;2884;47.734;9.244;2023-04-03T15:06:09;2.23;;;2.03;;
5718;SDS011;2884;47.734;9.244;2023-04-03T15:08:36;5.67;;;2.40;;
5718;SDS011;2884;47.734;9.244;2023-04-03T15:11:02;1.67;;;1.50;;
5718;SDS011;2884;47.734;9.244;2023-04-03T15:13:28;1.80;;;1.67;;
5718;SDS011;2884;47.734;9.244;2023-04-03T15:15:53;1.60;;;1.50;;
5718;SDS011;2884;47.734;9.244;2023-04-03T15:18:23;3.53;;;1.90;;
5718;SDS011;2884;47.734;9.244;2023-04-03T15:20:52;2.13;;;1.93;;
5718;SDS011;2884;47.734;9.244;2023-04-03T15:23:18;2.73;;;1.93;;
5718;SDS011;2884;47.734;9.244;2023-04-03T15:25:47;3.57;;;2.07;;
5718;SDS011;2884;47.734;9.244;2023-04-03T15:28:26;2.50;;;1.70;;
5718;SDS011;2884;47.734;9.244;2023-04-03T15:30:54;5.23;;;1.90;;
5718;SDS011;2884;47.734;9.244;2023-04-03T15:33:20;4.93;;;2.67;;
5718;SDS011;2884;47.734;9.244;2023-04-03T15:35:45;2.20;;;2.00;;
5718;SDS011;2884;47.734;9.244;2023-04-03T15:38:11;3.93;;;1.47;;
5718;SDS011;2884;47.734;9.244;2023-04-03T15:40:37;2.43;;;1.77;;
5718;SDS011;2884;47.734;9.244;2023-04-03T15:43:03;2.13;;;1.87;;
5718;SDS011;2884;47.734;9.244;2023-04-03T15:45:29;7.87;;;3.90;;
5718;SDS011;2884;47.734;9.244;2023-04-03T15:47:56;3.47;;;2.00;;
5718;SDS011;2884;47.734;9.244;2023-04-03T15:50:22;5.73;;;1.80;;
5718;SDS011;2884;47.734;9.244;2023-04-03T15:52:49;1.77;;;1.53;;
5718;SDS011;2884;47.734;9.244;2023-04-03T15:55:23;1.90;;;1.70;;
5718;SDS011;2884;47.734;9.244;2023-04-03T15:57:49;7.27;;;1.83;;
5718;SDS011;2884;47.734;9.244;2023-04-03T16:00:15;1.63;;;1.50;;
5718;SDS011;2884;47.734;9.244;2023-04-03T16:02:41;3.23;;;2.00;;
5718;SDS011;2884;47.734;9.244;2023-04-03T16:05:08;1.63;;;1.53;;
5718;SDS011;2884;47.734;9.244;2023-04-03T16:07:36;2.43;;;1.63;;
5718;SDS011;2884;47.734;9.244;2023-04-03T16:10:02;2.40;;;1.80;;
5718;SDS011;2884;47.734;9.244;2023-04-03T16:12:28;3.50;;;2.20;;
5718;SDS011;2884;47.734;9.244;2023-04-03T16:14:54;1.70;;;1.60;;
5718;SDS011;2884;47.734;9.244;2023-04-03T16:17:20;3.80;;;2.20;;
5718;SDS011;2884;47.734;9.244;2023-04-03T16:19:45;2.90;;;2.23;;
5718;SDS011;2884;47.734;9.244;2023-04-03T16:22:10;4.33;;;1.83;;
5718;SDS011;2884;47.734;9.244;2023-04-03T16:24:36;3.00;;;1.93;;
5718;SDS011;2884;47.734;9.244;2023-04-03T16:27:03;3.93;;;1.77;;
5718;SDS011;2884;47.734;9.244;2023-04-03T16:29:29;3.77;;;2.03;;
5718;SDS011;2884;47.734;9.244;2023-04-03T16:31:55;1.80;;;1.70;;
5718;SDS011;2884;47.734;9.244;2023-04-03T16:34:21;3.93;;;1.70;;
5718;SDS011;2884;47.734;9.244;2023-04-03T16:36:47;4.30;;;2.03;;
5718;SDS011;2884;47.734;9.244;2023-04-03T16:39:12;2.03;;;1.80;;
5718;SDS011;2884;47.734;9.244;2023-04-03T16:41:38;5.00;;;2.30;;
5718;SDS011;2884;47.734;9.244;2023-04-03T16:44:03;1.77;;;1.60;;
5718;SDS011;2884;47.734;9.244;2023-04-03T16:46:29;2.23;;;1.87;;
5718;SDS011;2884;47.734;9.244;2023-04-03T16:48:55;5.63;;;2.67;;
5718;SDS011;2884;47.734;9.244;2023-04-03T16:51:20;3.53;;;2.30;;
5718;SDS011;2884;47.734;9.244;2023-04-03T16:53:46;2.77;;;2.10;;
5718;SDS011;2884;47.734;9.244;2023-04-03T16:56:11;3.63;;;2.00;;
5718;SDS011;2884;47.734;9.244;2023-04-03T16:58:37;2.70;;;2.00;;
5718;SDS011;2884;47.734;9.244;2023-04-03T17:01:12;4.07;;;2.17;;
5718;SDS011;2884;47.734;9.244;2023-04-03T17:03:42;4.30;;;2.30;;
5718;SDS011;2884;47.734;9.244;2023-04-03T17:06:08;3.87;;;2.00;;
5718;SDS011;2884;47.734;9.244;2023-04-03T17:08:41;6.80;;;2.80;;
5718;SDS011;2884;47.734;9.244;2023-04-03T17:11:07;4.03;;;2.10;;
5718;SDS011;2884;47.734;9.244;2023-04-03T17:13:32;4.10;;;1.60;;
5718;SDS011;2884;47.734;9.244;2023-04-03T17:15:59;2.50;;;2.10;;
5718;SDS011;2884;47.734;9.244;2023-04-03T17:18:25;3.83;;;2.07;;
5718;SDS011;2884;47.734;9.244;2023-04-03T17:20:52;2.55;;;2.35;;